Time;durP1;ratioP1;P1;durP2;ratioP2;P2;SDS_P1;SDS_P2;PMS_P1;PMS_P2;Temp;Humidity;BMP_temperature;BMP_pressure;BME280_temperature;BME280_humidity;BME280_pressure;Samples;Min_cycle;Max_cycle;Signal;HPM_P1;HPM_P2
2022/11/25 00:00:44;;;;;;;;;;;;;;;10.79;nan;101622.63;5063907;28;19965;-32
2022/11/25 00:03:09;;;;;;;;;;;;;;;10.82;nan;101624.03;5063655;28;19989;-32
2022/11/25 00:05:34;;;;;;;;;;;;;;;10.84;nan;101625.44;5066828;28;19927;-32
2022/11/25 00:08:00;;;;;;;;;;;;;;;10.87;nan;101624.16;5061725;28;20067;-32
2022/11/25 00:10:25;;;;;;;;;;;;;;;10.89;nan;101628.25;5064688;28;19947;-33
2022/11/25 00:12:50;;;;;;;;;;;;;;;10.88;nan;101626.59;5063911;28;20341;-32
2022/11/25 00:15:16;;;;;;;;;;;;;;;10.86;nan;101633.25;5062779;28;20428;-32
2022/11/25 00:17:41;;;;;;;;;;;;;;;10.83;nan;101622.97;5063367;28;19916;-32
2022/11/25 00:20:07;;;;;;;;;;;;;;;10.84;nan;101629.97;5063685;28;19916;-33
2022/11/25 00:22:32;;;;;;;;;;;;;;;10.86;nan;101633.25;5065018;28;19948;-32
2022/11/25 00:24:57;;;;;;;;;;;;;;;10.87;nan;101635.69;5065269;28;19946;-32
2022/11/25 00:27:23;;;;;;;;;;;;;;;10.86;nan;101634.06;5063484;28;20388;-32
2022/11/25 00:29:48;;;;;;;;;;;;;;;10.86;nan;101639.41;5062977;28;20299;-33
2022/11/25 00:32:13;;;;;;;;;;;;;;;10.87;nan;101634.88;5063032;28;20299;-32
2022/11/25 00:34:39;;;;;;;;;;;;;;;10.88;nan;101644.56;5062763;28;20443;-33
2022/11/25 00:37:04;;;;;;;;;;;;;;;10.87;nan;101635.69;5064936;28;19978;-32
2022/11/25 00:39:29;;;;;;;;;;;;;;;10.89;nan;101644.31;5058703;28;20003;-32
2022/11/25 00:44:39;;;;;;;;;;;;;;;10.89;nan;101644.31;5065543;28;19922;-32
2022/11/25 00:47:04;;;;;;;;;;;;;;;10.91;nan;101646.78;5064573;28;19921;-32
2022/11/25 00:49:29;;;;;;;;;;;;;;;10.94;nan;101653.53;5064450;28;19928;-32
2022/11/25 00:51:55;;;;;;;;;;;;;;;10.94;nan;101651.69;5062881;28;19949;-33
2022/11/25 00:54:20;;;;;;;;;;;;;;;10.97;nan;101645.88;5060824;28;19920;-32
2022/11/25 00:56:45;;;;;;;;;;;;;;;10.99;nan;101651.81;5063778;28;19916;-32
2022/11/25 00:59:11;;;;;;;;;;;;;;;10.99;nan;101651.81;5062926;28;20106;-32
2022/11/25 01:01:36;;;;;;;;;;;;;;;10.97;nan;101648.56;5046745;28;19916;-33
2022/11/25 01:04:02;;;;;;;;;;;;;;;10.95;nan;101647.13;5062268;28;19920;-32
2022/11/25 01:06:28;;;;;;;;;;;;;;;10.94;nan;101640.94;5062852;28;19927;-32
2022/11/25 01:08:53;;;;;;;;;;;;;;;10.96;nan;101654.16;5065223;28;20376;-33
2022/11/25 01:11:20;;;;;;;;;;;;;;;10.96;nan;101649.63;5059753;28;19924;-32
2022/11/25 01:13:46;;;;;;;;;;;;;;;10.97;nan;101656.59;5063507;28;19916;-32
2022/11/25 01:16:13;;;;;;;;;;;;;;;10.98;nan;101666.28;5060555;28;20376;-32
2022/11/25 01:18:38;;;;;;;;;;;;;;;10.98;nan;101660.91;5060813;28;20007;-32
2022/11/25 01:21:07;;;;;;;;;;;;;;;10.96;nan;101665.69;5061663;28;20058;-32
2022/11/25 01:23:33;;;;;;;;;;;;;;;10.97;nan;101661.97;5062072;28;19957;-32
2022/11/25 01:26:05;;;;;;;;;;;;;;;10.96;nan;101665.69;5061146;28;20326;-32
2022/11/25 01:28:31;;;;;;;;;;;;;;;10.97;nan;101663.84;5061664;28;19927;-32
2022/11/25 01:31:01;;;;;;;;;;;;;;;10.94;nan;101658.91;5062123;28;19925;-32
2022/11/25 01:33:26;;;;;;;;;;;;;;;10.90;nan;101661.22;5062938;28;20017;-32
2022/11/25 01:35:52;;;;;;;;;;;;;;;10.89;nan;101659.59;5060547;28;19993;-32
2022/11/25 01:38:17;;;;;;;;;;;;;;;10.86;nan;101655.50;5064161;28;19916;-32
2022/11/25 01:40:42;;;;;;;;;;;;;;;10.85;nan;101659.22;5063291;28;19916;-32
2022/11/25 01:43:13;;;;;;;;;;;;;;;10.84;nan;101660.28;5056171;28;19923;-32
2022/11/25 01:45:39;;;;;;;;;;;;;;;10.83;nan;101660.50;5060306;28;19916;-32
2022/11/25 01:48:17;;;;;;;;;;;;;;;10.81;nan;101659.94;5064757;28;19978;-32
2022/11/25 01:50:43;;;;;;;;;;;;;;;10.77;nan;101648.00;5062377;28;20371;-32
2022/11/25 01:53:10;;;;;;;;;;;;;;;10.73;nan;101650.31;5060222;28;19916;-32
2022/11/25 01:55:37;;;;;;;;;;;;;;;10.73;nan;101650.31;5063827;28;19942;-32
2022/11/25 01:58:08;;;;;;;;;;;;;;;10.74;nan;101645.78;5059975;28;20018;-32
2022/11/25 02:00:33;;;;;;;;;;;;;;;10.75;nan;101647.41;5062299;28;20034;-32
2022/11/25 02:02:59;;;;;;;;;;;;;;;10.76;nan;101646.38;5061864;28;19916;-32
2022/11/25 02:05:48;;;;;;;;;;;;;;;10.74;nan;101637.72;5062817;28;19924;-32
2022/11/25 02:08:14;;;;;;;;;;;;;;;10.73;nan;101644.97;5012170;28;19920;-32
2022/11/25 02:10:41;;;;;;;;;;;;;;;10.76;nan;101649.03;5062952;28;19941;-32
2022/11/25 02:13:06;;;;;;;;;;;;;;;10.76;nan;101651.72;5059787;28;19920;-32
2022/11/25 02:15:33;;;;;;;;;;;;;;;10.78;nan;101652.34;5063564;28;19916;-32
2022/11/25 02:17:58;;;;;;;;;;;;;;;10.78;nan;101647.78;5061466;28;19920;-32
2022/11/25 02:20:23;;;;;;;;;;;;;;;10.79;nan;101643.25;5059777;28;19916;-32
2022/11/25 02:22:58;;;;;;;;;;;;;;;10.79;nan;101640.56;5062121;28;19916;-32
2022/11/25 02:25:24;;;;;;;;;;;;;;;10.79;nan;101637.88;5061643;28;19916;-32
2022/11/25 02:27:55;;;;;;;;;;;;;;;10.82;nan;101637.44;5061035;28;19920;-32
2022/11/25 02:30:20;;;;;;;;;;;;;;;10.83;nan;101639.06;5060835;28;19932;-32
2022/11/25 02:32:46;;;;;;;;;;;;;;;10.84;nan;101635.34;5063403;28;19920;-32
2022/11/25 02:35:30;;;;;;;;;;;;;;;10.87;nan;101629.50;5060570;28;20409;-32
2022/11/25 02:37:57;;;;;;;;;;;;;;;10.87;nan;101629.50;5060532;28;19924;-32
2022/11/25 02:40:22;;;;;;;;;;;;;;;10.85;nan;101639.66;5066213;28;19920;-32
2022/11/25 02:42:48;;;;;;;;;;;;;;;10.84;nan;101635.34;5062562;28;19920;-32
2022/11/25 02:45:14;;;;;;;;;;;;;;;10.86;nan;101634.06;5064335;28;20437;-32
2022/11/25 02:47:39;;;;;;;;;;;;;;;10.87;nan;101637.56;5062388;28;20022;-32
2022/11/25 02:50:05;;;;;;;;;;;;;;;10.89;nan;101632.78;5067917;28;20371;-32
2022/11/25 02:52:30;;;;;;;;;;;;;;;10.89;nan;101633.59;5066745;28;20445;-32
2022/11/25 02:54:56;;;;;;;;;;;;;;;10.89;nan;101630.09;5064037;28;19920;-32
2022/11/25 02:57:21;;;;;;;;;;;;;;;10.89;nan;101641.63;5064037;28;19920;-32
2022/11/25 02:59:47;;;;;;;;;;;;;;;10.91;nan;101641.41;5064105;28;19916;-32
2022/11/25 03:02:12;;;;;;;;;;;;;;;10.89;nan;101636.28;5066467;28;19920;-32
2022/11/25 03:04:37;;;;;;;;;;;;;;;10.90;nan;101629.06;5064762;28;19924;-32
2022/11/25 03:07:03;;;;;;;;;;;;;;;10.89;nan;101632.78;5062379;28;19921;-32
2022/11/25 03:09:28;;;;;;;;;;;;;;;10.89;nan;101627.41;5064398;28;19924;-32
2022/11/25 03:14:37;;;;;;;;;;;;;;;10.89;nan;101622.06;5066397;28;19928;-32
2022/11/25 03:17:03;;;;;;;;;;;;;;;10.88;nan;101626.59;5060665;28;19917;-32
2022/11/25 03:19:28;;;;;;;;;;;;;;;10.91;nan;101625.31;5066521;28;19946;-32
2022/11/25 03:21:53;;;;;;;;;;;;;;;10.92;nan;101618.91;5064838;28;19924;-32
2022/11/25 03:24:19;;;;;;;;;;;;;;;10.93;nan;101622.41;5064942;28;21394;-32
2022/11/25 03:26:44;;;;;;;;;;;;;;;10.93;nan;101620.53;5065290;28;19974;-32
2022/11/25 03:29:09;;;;;;;;;;;;;;;10.95;nan;101623.00;5065043;28;19924;-32
2022/11/25 03:31:35;;;;;;;;;;;;;;;10.93;nan;101627.78;5067576;28;19927;-32
2022/11/25 03:34:00;;;;;;;;;;;;;;;10.87;nan;101626.84;5061631;28;19916;-32
2022/11/25 03:36:25;;;;;;;;;;;;;;;10.85;nan;101634.28;5062012;28;19921;-32
2022/11/25 03:38:51;;;;;;;;;;;;;;;10.87;nan;101637.56;5063834;28;19916;-32
2022/11/25 03:41:16;;;;;;;;;;;;;;;10.85;nan;101637.78;5065370;28;19917;-32
2022/11/25 03:43:41;;;;;;;;;;;;;;;10.87;nan;101653.66;5063544;28;19924;-32
2022/11/25 03:46:07;;;;;;;;;;;;;;;10.90;nan;101651.31;5062184;28;20349;-32
2022/11/25 03:48:32;;;;;;;;;;;;;;;10.92;nan;101653.78;5063006;28;19924;-32
2022/11/25 03:50:57;;;;;;;;;;;;;;;10.92;nan;101652.94;5065067;28;19964;-32
2022/11/25 03:53:23;;;;;;;;;;;;;;;10.92;nan;101659.13;5066470;28;20383;-32
2022/11/25 03:55:48;;;;;;;;;;;;;;;10.92;nan;101650.28;5064973;28;20360;-32
2022/11/25 03:58:14;;;;;;;;;;;;;;;10.92;nan;101651.09;5064734;28;19920;-32
2022/11/25 04:00:39;;;;;;;;;;;;;;;10.90;nan;101648.63;5063748;28;20269;-32
2022/11/25 04:03:04;;;;;;;;;;;;;;;10.90;nan;101643.28;5065626;28;19924;-32
2022/11/25 04:05:30;;;;;;;;;;;;;;;10.91;nan;101646.78;5064063;28;20528;-32
2022/11/25 04:07:55;;;;;;;;;;;;;;;10.88;nan;101641.88;5064500;28;20001;-32
2022/11/25 04:10:20;;;;;;;;;;;;;;;10.89;nan;101638.16;5063149;28;20335;-32
2022/11/25 04:12:45;;;;;;;;;;;;;;;10.89;nan;101638.16;5064922;28;20341;-32
2022/11/25 04:15:11;;;;;;;;;;;;;;;10.89;nan;101643.50;5063388;28;20404;-32
2022/11/25 04:17:37;;;;;;;;;;;;;;;10.87;nan;101646.41;5064783;28;20360;-32
2022/11/25 04:20:03;;;;;;;;;;;;;;;10.84;nan;101651.41;5065139;28;19931;-32
2022/11/25 04:22:28;;;;;;;;;;;;;;;10.80;nan;101658.28;5065189;28;19920;-32
2022/11/25 04:24:53;;;;;;;;;;;;;;;10.75;nan;101660.81;5063733;28;20003;-32
2022/11/25 04:27:19;;;;;;;;;;;;;;;10.71;nan;101663.13;5064183;28;19916;-32
2022/11/25 04:29:44;;;;;;;;;;;;;;;10.68;nan;101652.88;5063146;28;19920;-32
2022/11/25 04:32:09;;;;;;;;;;;;;;;10.69;nan;101659.06;5063914;28;19931;-32
2022/11/25 04:34:35;;;;;;;;;;;;;;;10.70;nan;101656.13;5066652;28;20383;-32
2022/11/25 04:37:00;;;;;;;;;;;;;;;10.73;nan;101661.03;5062343;28;20257;-32
2022/11/25 04:39:25;;;;;;;;;;;;;;;10.75;nan;101660.81;5065450;28;19917;-32
2022/11/25 04:42:30;;;;;;;;;;;;;;;10.76;nan;101659.75;5061037;28;20027;-32
2022/11/25 04:44:36;;;;;;;;;;;;;;;10.76;nan;101660.59;5065066;28;19920;-32
2022/11/25 04:47:01;;;;;;;;;;;;;;;10.78;nan;101665.75;5064193;28;19923;-32
2022/11/25 04:49:26;;;;;;;;;;;;;;;10.81;nan;101670.66;5063105;28;20249;-32
2022/11/25 04:51:52;;;;;;;;;;;;;;;10.83;nan;101666.69;5063239;28;20341;-32
2022/11/25 04:54:17;;;;;;;;;;;;;;;10.85;nan;101669.16;5064414;28;20283;-32
2022/11/25 04:56:42;;;;;;;;;;;;;;;10.84;nan;101671.00;5064012;28;19917;-32
2022/11/25 05:01:51;;;;;;;;;;;;;;;10.82;nan;101683.81;5061553;28;19947;-32
2022/11/25 05:04:17;;;;;;;;;;;;;;;10.84;nan;101686.28;5064430;28;19932;-32
2022/11/25 05:06:42;;;;;;;;;;;;;;;10.86;nan;101686.88;5062532;28;20379;-33
2022/11/25 05:09:10;;;;;;;;;;;;;;;10.85;nan;101696.78;5062720;28;20081;-33
2022/11/25 05:11:35;;;;;;;;;;;;;;;10.85;nan;101701.31;5063354;28;19916;-33
2022/11/25 05:14:00;;;;;;;;;;;;;;;10.87;nan;101701.91;5064917;28;20463;-32
2022/11/25 05:16:25;;;;;;;;;;;;;;;10.89;nan;101711.34;5059487;28;20106;-32
2022/11/25 05:18:51;;;;;;;;;;;;;;;10.90;nan;101709.50;5063799;28;20016;-32
2022/11/25 05:21:16;;;;;;;;;;;;;;;10.91;nan;101697.72;5061638;28;19924;-32
2022/11/25 05:23:41;;;;;;;;;;;;;;;10.93;nan;101711.72;5065263;28;19924;-32
2022/11/25 05:26:07;;;;;;;;;;;;;;;10.92;nan;101710.06;5061783;28;19940;-32
2022/11/25 05:28:32;;;;;;;;;;;;;;;10.95;nan;101723.06;5060536;28;20167;-32
2022/11/25 05:30:58;;;;;;;;;;;;;;;10.97;nan;101726.31;5063288;28;19920;-32
2022/11/25 05:33:23;;;;;;;;;;;;;;;10.98;nan;101730.63;5061706;28;19916;-32
2022/11/25 05:35:56;;;;;;;;;;;;;;;10.97;nan;101726.31;5064321;28;19916;-32
2022/11/25 05:38:21;;;;;;;;;;;;;;;10.96;nan;101727.38;5061010;28;19924;-32
2022/11/25 05:40:46;;;;;;;;;;;;;;;10.96;nan;101723.88;5065168;28;20018;-32
2022/11/25 05:43:12;;;;;;;;;;;;;;;10.93;nan;101714.38;5061158;28;20342;-32
2022/11/25 05:45:38;;;;;;;;;;;;;;;10.92;nan;101717.31;5063770;28;20390;-32
2022/11/25 05:48:03;;;;;;;;;;;;;;;10.90;nan;101720.22;5055977;28;20392;-32
2022/11/25 05:50:28;;;;;;;;;;;;;;;10.87;nan;101720.66;5065189;28;19963;-32
2022/11/25 05:52:54;;;;;;;;;;;;;;;10.86;nan;101724.41;5060559;28;20291;-32
2022/11/25 05:55:19;;;;;;;;;;;;;;;10.86;nan;101719.84;5062122;28;19981;-32
2022/11/25 05:57:44;;;;;;;;;;;;;;;10.86;nan;101725.22;5066220;28;19927;-32
2022/11/25 06:00:10;;;;;;;;;;;;;;;10.86;nan;101721.72;5062063;28;20427;-32
2022/11/25 06:02:35;;;;;;;;;;;;;;;10.82;nan;101717.84;5060632;28;20390;-32
2022/11/25 06:05:01;;;;;;;;;;;;;;;10.76;nan;101719.56;5054734;28;20381;-32
2022/11/25 06:07:26;;;;;;;;;;;;;;;10.77;nan;101726.59;5061713;28;19962;-32
2022/11/25 06:09:51;;;;;;;;;;;;;;;10.83;nan;101735.56;5066737;28;19946;-32
2022/11/25 06:12:19;;;;;;;;;;;;;;;10.87;nan;101744.81;5062727;28;20196;-32
2022/11/25 06:14:44;;;;;;;;;;;;;;;10.89;nan;101754.25;5052858;28;19920;-32
2022/11/25 06:17:09;;;;;;;;;;;;;;;10.91;nan;101751.34;5063423;28;19927;-32
2022/11/25 06:19:35;;;;;;;;;;;;;;;10.91;nan;101745.97;5064859;28;19920;-32
2022/11/25 06:22:00;;;;;;;;;;;;;;;10.91;nan;101748.66;5061301;28;19935;-32
2022/11/25 06:24:25;;;;;;;;;;;;;;;10.92;nan;101752.97;5062280;28;19949;-32
2022/11/25 06:26:51;;;;;;;;;;;;;;;10.94;nan;101750.06;5061883;28;19920;-32
2022/11/25 06:29:16;;;;;;;;;;;;;;;10.91;nan;101754.03;5060583;28;20019;-32
2022/11/25 06:31:41;;;;;;;;;;;;;;;10.88;nan;101749.13;5060933;28;20094;-32
2022/11/25 06:34:08;;;;;;;;;;;;;;;10.85;nan;101754.94;5063054;28;20015;-32
2022/11/25 06:36:33;;;;;;;;;;;;;;;10.83;nan;101754.34;5063174;28;19916;-32
2022/11/25 06:38:58;;;;;;;;;;;;;;;10.82;nan;101758.88;5063546;28;20342;-32
2022/11/25 06:41:24;;;;;;;;;;;;;;;10.83;nan;101757.03;5061627;28;20375;-32
2022/11/25 06:43:49;;;;;;;;;;;;;;;10.85;nan;101762.97;5064228;28;19924;-32
2022/11/25 06:46:15;;;;;;;;;;;;;;;10.88;nan;101765.19;5061360;28;19931;-32
2022/11/25 06:48:41;;;;;;;;;;;;;;;10.90;nan;101766.59;5065280;28;20023;-32
2022/11/25 06:51:08;;;;;;;;;;;;;;;10.92;nan;101763.69;5063699;28;20015;-32
2022/11/25 06:53:34;;;;;;;;;;;;;;;10.95;nan;101765.09;5064734;28;20429;-32
2022/11/25 06:56:03;;;;;;;;;;;;;;;10.98;nan;101770.88;5062903;28;19916;-32
2022/11/25 06:58:29;;;;;;;;;;;;;;;10.99;nan;101771.69;5059864;28;20449;-32
2022/11/25 07:01:05;;;;;;;;;;;;;;;10.97;nan;101758.50;5060792;28;19924;-32
2022/11/25 07:03:31;;;;;;;;;;;;;;;10.97;nan;101774.59;5059808;28;19927;-32
2022/11/25 07:05:57;;;;;;;;;;;;;;;10.96;nan;101772.97;5062990;28;20283;-32
2022/11/25 07:08:23;;;;;;;;;;;;;;;10.96;nan;101772.13;5061960;28;19958;-32
2022/11/25 07:10:49;;;;;;;;;;;;;;;10.94;nan;101772.34;5063014;28;19916;-33
2022/11/25 07:13:14;;;;;;;;;;;;;;;10.97;nan;101774.59;5054486;28;19924;-32
2022/11/25 07:15:39;;;;;;;;;;;;;;;10.98;nan;101776.22;5055770;28;19946;-32
2022/11/25 07:18:05;;;;;;;;;;;;;;;10.95;nan;101776.69;5056425;28;19920;-32
2022/11/25 07:20:31;;;;;;;;;;;;;;;10.97;nan;101774.59;5061038;28;20011;-32
2022/11/25 07:22:57;;;;;;;;;;;;;;;10.99;nan;101780.53;5061141;28;19928;-32
2022/11/25 07:25:22;;;;;;;;;;;;;;;11.03;nan;101792.44;5059308;28;19916;-32
2022/11/25 07:27:47;;;;;;;;;;;;;;;11.04;nan;101786.03;5069162;28;20299;-32
2022/11/25 07:30:13;;;;;;;;;;;;;;;11.06;nan;101792.00;5063072;28;20280;-33
2022/11/25 07:32:38;;;;;;;;;;;;;;;11.01;nan;101797.22;5064062;28;19998;-32
2022/11/25 07:35:04;;;;;;;;;;;;;;;10.92;nan;101795.06;5068565;28;20003;-32
2022/11/25 07:37:29;;;;;;;;;;;;;;;10.87;nan;101791.19;5061474;28;19947;-32
2022/11/25 07:39:55;;;;;;;;;;;;;;;10.88;nan;101787.47;5065107;28;20572;-32
2022/11/25 07:42:20;;;;;;;;;;;;;;;10.89;nan;101782.94;5064800;28;20295;-32
2022/11/25 07:44:45;;;;;;;;;;;;;;;10.93;nan;101796.69;5063309;28;20268;-32
2022/11/25 07:47:10;;;;;;;;;;;;;;;10.93;nan;101789.47;5058748;28;19916;-32
2022/11/25 07:49:36;;;;;;;;;;;;;;;10.96;nan;101786.38;5061944;28;19932;-32
2022/11/25 07:52:03;;;;;;;;;;;;;;;10.97;nan;101785.31;5060633;28;19916;-32
2022/11/25 07:54:28;;;;;;;;;;;;;;;11.00;nan;101787.53;5062874;28;20408;-32
2022/11/25 07:56:54;;;;;;;;;;;;;;;11.05;nan;101786.84;5060865;28;19922;-32
2022/11/25 07:59:20;;;;;;;;;;;;;;;11.08;nan;101784.53;5060059;28;19916;-32
2022/11/25 08:01:47;;;;;;;;;;;;;;;11.11;nan;101785.94;5060216;28;19928;-32
2022/11/25 08:04:13;;;;;;;;;;;;;;;11.13;nan;101776.66;5061723;28;20520;-32
2022/11/25 08:06:41;;;;;;;;;;;;;;;11.12;nan;101783.03;5060130;28;19920;-32
2022/11/25 08:09:07;;;;;;;;;;;;;;;11.14;nan;101780.97;5061228;28;19928;-32
2022/11/25 08:11:32;;;;;;;;;;;;;;;11.19;nan;101782.97;5086692;22;19924;-31
2022/11/25 08:13:57;;;;;;;;;;;;;;;11.16;nan;101781.56;5077240;28;20306;-31
2022/11/25 08:16:25;;;;;;;;;;;;;;;11.18;nan;101786.69;5073098;28;19924;-31
2022/11/25 08:18:52;;;;;;;;;;;;;;;11.17;nan;101785.06;5076870;28;19928;-31
2022/11/25 08:21:17;;;;;;;;;;;;;;;11.19;nan;101777.59;5072996;28;20035;-31
2022/11/25 08:23:43;;;;;;;;;;;;;;;11.20;nan;101780.06;5077741;28;20333;-31
2022/11/25 08:26:15;;;;;;;;;;;;;;;11.19;nan;101785.66;5081325;28;19927;-31
2022/11/25 08:28:41;;;;;;;;;;;;;;;11.20;nan;101790.78;5075634;28;20294;-31
2022/11/25 08:31:08;;;;;;;;;;;;;;;11.23;nan;101792.19;5073201;28;19924;-30
2022/11/25 08:33:33;;;;;;;;;;;;;;;11.26;nan;101783.69;5071330;28;19931;-32
2022/11/25 08:35:59;;;;;;;;;;;;;;;11.26;nan;101786.38;5075088;28;19942;-31
2022/11/25 08:38:24;;;;;;;;;;;;;;;11.28;nan;101786.13;5080170;28;19982;-31
2022/11/25 08:40:50;;;;;;;;;;;;;;;11.32;nan;101790.03;5078649;28;20413;-31
2022/11/25 08:43:15;;;;;;;;;;;;;;;11.35;nan;101792.25;5075460;28;19920;-31
2022/11/25 08:45:40;;;;;;;;;;;;;;;11.38;nan;101791.78;5074510;28;19955;-31
2022/11/25 08:48:06;;;;;;;;;;;;;;;11.39;nan;101796.09;5080514;28;20414;-31
2022/11/25 08:50:31;;;;;;;;;;;;;;;11.41;nan;101799.38;5079932;28;20182;-31
2022/11/25 08:52:58;;;;;;;;;;;;;;;11.39;nan;101799.63;5077165;28;20031;-31
2022/11/25 08:55:26;;;;;;;;;;;;;;;11.37;nan;101803.56;5077954;28;20030;-32
2022/11/25 08:57:51;;;;;;;;;;;;;;;11.38;nan;101800.66;5076647;28;20382;-31
2022/11/25 09:00:17;;;;;;;;;;;;;;;11.38;nan;101802.53;5077677;28;19923;-31
2022/11/25 09:02:42;;;;;;;;;;;;;;;11.40;nan;101800.44;5079595;28;19920;-31
2022/11/25 09:05:10;;;;;;;;;;;;;;;11.43;nan;101803.47;5076746;28;19926;-31
2022/11/25 09:07:35;;;;;;;;;;;;;;;11.45;nan;101803.25;5077692;28;19916;-31
2022/11/25 09:10:01;;;;;;;;;;;;;;;11.44;nan;101806.97;5078386;28;20320;-31
2022/11/25 09:12:26;;;;;;;;;;;;;;;11.44;nan;101806.97;5077661;28;19919;-31
2022/11/25 09:14:51;;;;;;;;;;;;;;;11.45;nan;101803.25;5074613;28;19946;-32
2022/11/25 09:17:17;;;;;;;;;;;;;;;11.47;nan;101811.88;5074846;28;20007;-32
2022/11/25 09:19:42;;;;;;;;;;;;;;;11.52;nan;101811.22;5075864;28;20011;-32
2022/11/25 09:22:08;;;;;;;;;;;;;;;11.50;nan;101804.22;5080380;28;19955;-31
2022/11/25 09:24:33;;;;;;;;;;;;;;;11.52;nan;101805.84;5077835;28;19931;-31
2022/11/25 09:26:59;;;;;;;;;;;;;;;11.55;nan;101816.94;5073403;28;19921;-31
2022/11/25 09:29:26;;;;;;;;;;;;;;;11.58;nan;101808.44;5074675;28;19920;-31
2022/11/25 09:31:52;;;;;;;;;;;;;;;11.61;nan;101810.66;5078471;28;20163;-31
2022/11/25 09:34:17;;;;;;;;;;;;;;;11.64;nan;101807.50;5077049;28;20310;-31
2022/11/25 09:36:43;;;;;;;;;;;;;;;11.66;nan;101808.09;5079252;28;20421;-31
2022/11/25 09:39:08;;;;;;;;;;;;;;;11.69;nan;101804.16;5079332;28;19920;-31
2022/11/25 09:47:29;;;;;;;;;;;;;;;11.73;nan;101810.69;5071335;28;19949;-31
2022/11/25 09:50:00;;;;;;;;;;;;;;;11.76;nan;101805.69;5077255;28;20303;-32
2022/11/25 09:52:44;;;;;;;;;;;;;;;11.82;nan;101808.50;5080558;28;19916;-32
2022/11/25 09:55:21;;;;;;;;;;;;;;;11.83;nan;101805.59;5078120;28;20008;-32
2022/11/25 09:58:15;;;;;;;;;;;;;;;11.88;nan;101802.25;5078380;28;19927;-31
2022/11/25 10:00:42;;;;;;;;;;;;;;;11.92;nan;101800.72;5054572;28;19951;-31
2022/11/25 10:03:16;;;;;;;;;;;;;;;11.97;nan;101803.53;5074613;28;20252;-32
2022/11/25 10:06:05;;;;;;;;;;;;;;;12.01;nan;101804.69;5077063;28;19959;-31
2022/11/25 10:08:37;;;;;;;;;;;;;;;12.03;nan;101799.94;5066113;28;19928;-31
2022/11/25 10:11:18;;;;;;;;;;;;;;;12.06;nan;101805.66;5078579;28;19920;-32
2022/11/25 10:13:43;;;;;;;;;;;;;;;12.14;nan;101806.34;5077721;28;20528;-33
2022/11/25 10:16:16;;;;;;;;;;;;;;;12.17;nan;101808.56;5077139;28;20562;-32
2022/11/25 10:18:46;;;;;;;;;;;;;;;12.21;nan;101805.19;5076053;28;19924;-32
2022/11/25 10:21:12;;;;;;;;;;;;;;;12.23;nan;101805.78;5077136;28;19927;-33
2022/11/25 10:23:38;;;;;;;;;;;;;;;12.25;nan;101811.75;5078840;28;21612;-32
2022/11/25 10:26:20;;;;;;;;;;;;;;;12.27;nan;101816.88;5076996;28;19923;-33
2022/11/25 10:28:59;;;;;;;;;;;;;;;12.24;nan;101831.59;5076231;28;20533;-33
2022/11/25 10:31:28;;;;;;;;;;;;;;;12.13;nan;101834.25;5074122;28;20002;-33
2022/11/25 10:33:56;;;;;;;;;;;;;;;12.09;nan;101820.47;5076815;28;19923;-32
2022/11/25 10:36:36;;;;;;;;;;;;;;;12.06;nan;101820.94;5079724;28;20306;-33
2022/11/25 10:39:16;;;;;;;;;;;;;;;12.07;nan;101815.34;5077423;28;19920;-32
2022/11/25 10:41:51;;;;;;;;;;;;;;;12.08;nan;101813.47;5079543;28;20330;-32
2022/11/25 10:44:27;;;;;;;;;;;;;;;12.12;nan;101811.97;5077263;28;20015;-33
2022/11/25 10:46:56;;;;;;;;;;;;;;;12.16;nan;101809.63;5074793;28;20332;-32
2022/11/25 10:49:29;;;;;;;;;;;;;;;12.20;nan;101811.59;5075223;28;20379;-33
2022/11/25 10:51:56;;;;;;;;;;;;;;;12.27;nan;101816.88;5074245;28;19930;-33
2022/11/25 10:54:23;;;;;;;;;;;;;;;12.31;nan;101815.34;5076273;28;19962;-33
2022/11/25 10:56:55;;;;;;;;;;;;;;;12.32;nan;101809.75;5072424;28;19923;-33
2022/11/25 10:59:25;;;;;;;;;;;;;;;12.33;nan;101806.00;5078026;28;19920;-33
2022/11/25 11:01:52;;;;;;;;;;;;;;;12.34;nan;101796.88;5080915;28;20288;-33
2022/11/25 11:04:18;;;;;;;;;;;;;;;12.36;nan;101805.53;5078890;28;19939;-32
2022/11/25 11:06:45;;;;;;;;;;;;;;;12.37;nan;101804.47;5081870;28;19920;-33
2022/11/25 11:09:28;;;;;;;;;;;;;;;12.39;nan;101802.41;5078984;28;19949;-33
2022/11/25 11:11:54;;;;;;;;;;;;;;;12.34;nan;101799.56;5080808;28;20105;-33
2022/11/25 11:14:19;;;;;;;;;;;;;;;12.33;nan;101807.88;5082370;28;20363;-33
2022/11/25 11:16:51;;;;;;;;;;;;;;;12.30;nan;101809.16;5079625;28;19959;-32
2022/11/25 11:19:25;;;;;;;;;;;;;;;12.32;nan;101809.75;5078468;28;20315;-32
2022/11/25 11:21:50;;;;;;;;;;;;;;;12.38;nan;101813.34;5077096;28;20410;-32
2022/11/25 11:24:22;;;;;;;;;;;;;;;12.42;nan;101813.72;5080715;28;19920;-33
2022/11/25 11:26:59;;;;;;;;;;;;;;;12.43;nan;101810.00;5081189;28;19920;-32
2022/11/25 11:29:25;;;;;;;;;;;;;;;12.44;nan;101807.06;5079136;28;20079;-32
2022/11/25 11:31:56;;;;;;;;;;;;;;;12.48;nan;101816.28;5079874;28;19922;-33
2022/11/25 11:34:22;;;;;;;;;;;;;;;12.50;nan;101813.38;5077753;28;20426;-33
2022/11/25 11:37:06;;;;;;;;;;;;;;;12.51;nan;101806.94;5078197;28;19921;-33
2022/11/25 11:39:31;;;;;;;;;;;;;;;12.52;nan;101813.94;5079128;28;19920;-33
2022/11/25 11:41:57;;;;;;;;;;;;;;;12.57;nan;101814.06;5081164;28;19927;-33
2022/11/25 11:44:22;;;;;;;;;;;;;;;12.61;nan;101801.78;5080372;28;20295;-34
2022/11/25 11:47:06;;;;;;;;;;;;;;;12.65;nan;101803.75;5078650;28;19920;-33
2022/11/25 11:49:31;;;;;;;;;;;;;;;12.69;nan;101810.31;5079919;28;20106;-32
2022/11/25 11:52:11;;;;;;;;;;;;;;;12.75;nan;101802.34;5077552;28;19924;-33
2022/11/25 11:54:45;;;;;;;;;;;;;;;12.79;nan;101804.34;5080300;28;19924;-33
2022/11/25 11:57:16;;;;;;;;;;;;;;;12.85;nan;101811.44;5078761;28;19924;-32
2022/11/25 11:59:51;;;;;;;;;;;;;;;12.86;nan;101813.06;5078660;28;20444;-33
2022/11/25 12:02:29;;;;;;;;;;;;;;;12.90;nan;101816.09;5084987;28;19981;-33
2022/11/25 12:05:00;;;;;;;;;;;;;;;12.92;nan;101814.81;5079061;28;19924;-33
2022/11/25 12:07:28;;;;;;;;;;;;;;;12.94;nan;101815.41;5079618;28;19931;-33
2022/11/25 12:09:54;;;;;;;;;;;;;;;12.98;nan;101813.06;5079482;28;20675;-33
2022/11/25 12:12:21;;;;;;;;;;;;;;;13.02;nan;101808.84;5076959;28;19924;-34
2022/11/25 12:14:56;;;;;;;;;;;;;;;13.06;nan;101809.16;5080561;28;19916;-33
2022/11/25 12:17:36;;;;;;;;;;;;;;;13.10;nan;101804.94;5076096;28;20424;-33
2022/11/25 12:20:04;;;;;;;;;;;;;;;13.12;nan;101802.84;5079367;28;20463;-33
2022/11/25 12:22:36;;;;;;;;;;;;;;;13.12;nan;101803.66;5075957;28;19927;-32
2022/11/25 12:25:22;;;;;;;;;;;;;;;13.15;nan;101800.50;5081528;28;19949;-33
2022/11/25 12:27:52;;;;;;;;;;;;;;;13.18;nan;101801.91;5079579;28;20038;-33
2022/11/25 12:30:19;;;;;;;;;;;;;;;13.18;nan;101799.22;5083238;28;19943;-32
2022/11/25 12:33:03;;;;;;;;;;;;;;;13.22;nan;101798.50;5077733;28;19920;-33
2022/11/25 12:35:36;;;;;;;;;;;;;;;13.24;nan;101800.94;5079036;28;20019;-32
2022/11/25 12:38:04;;;;;;;;;;;;;;;13.26;nan;101794.25;5079295;28;19999;-33
2022/11/25 12:40:36;;;;;;;;;;;;;;;13.25;nan;101791.81;5075259;28;20014;-32
2022/11/25 12:43:15;;;;;;;;;;;;;;;13.25;nan;101792.63;5078660;28;20342;-33
2022/11/25 12:45:41;;;;;;;;;;;;;;;13.27;nan;101792.38;5078571;28;19981;-32
2022/11/25 12:48:09;;;;;;;;;;;;;;;13.31;nan;101793.56;5075665;28;19966;-32
2022/11/25 12:50:57;;;;;;;;;;;;;;;13.33;nan;101786.06;5081012;28;19928;-34
2022/11/25 12:53:23;;;;;;;;;;;;;;;13.32;nan;101789.81;5075707;28;19927;-33
2022/11/25 12:55:48;;;;;;;;;;;;;;;13.34;nan;101790.38;5079117;28;19920;-33
2022/11/25 12:58:29;;;;;;;;;;;;;;;13.29;nan;101793.00;5080130;28;19924;-33
2022/11/25 13:01:05;;;;;;;;;;;;;;;13.33;nan;101790.63;5080700;28;20458;-33
2022/11/25 13:04:03;;;;;;;;;;;;;;;13.40;nan;101802.06;5073553;28;20754;-33
2022/11/25 13:06:32;;;;;;;;;;;;;;;13.38;nan;101799.59;5021545;28;20324;-33
2022/11/25 13:09:16;;;;;;;;;;;;;;;13.38;nan;101802.31;5077020;28;19928;-32
2022/11/25 13:11:47;;;;;;;;;;;;;;;13.34;nan;101797.66;5077163;28;19999;-33
2022/11/25 13:14:15;;;;;;;;;;;;;;;13.33;nan;101799.53;5081714;28;19927;-32